Pangburn, Arkansas
Current Conditions -  °F | °C
As of 5:56 PM on Saturday 22 Nov 2014 (Local Time) from KSRC Reporting Station
Clear Clear  
Wind Chill: 56°   Ceiling: Unl
Heat Index: 56°   Visibility: 10mi
Dew Point: 51°   Wind: 0mph
Humidity: 84%   Direction: NA
Pressure: 30.03"   Gusts: NA
Location:  35.43°N, 91.84°W
Report Text: KSRC 222356Z AUTO 00000KT 10SM CLR 13/11 A3003 RMK AO2 SLP176 T01330106 10178 20133 55004 TSNO
Loading
Personal Weather Stations






























Interactive Weather Map New forecast layout! Learn more

10-Day Weather Forecast

Advertisements
Track Severe Weather on mobile